sensor_id;sensor_type;location;lat;lon;timestamp;pressure;altitude;pressure_sealevel;temperature;humidity
57232;BME280;43488;46.934;8.276;2023-04-21T00:02:17;96060.00;;;3.82;100.00
57232;BME280;43488;46.934;8.276;2023-04-21T00:04:57;96051.38;;;3.81;100.00
57232;BME280;43488;46.934;8.276;2023-04-21T00:07:26;96053.78;;;3.83;100.00
57232;BME280;43488;46.934;8.276;2023-04-21T00:09:53;96047.09;;;3.88;100.00
57232;BME280;43488;46.934;8.276;2023-04-21T00:12:20;96042.25;;;3.85;100.00
57232;BME280;43488;46.934;8.276;2023-04-21T00:14:47;96034.13;;;3.80;100.00
57232;BME280;43488;46.934;8.276;2023-04-21T00:17:15;96024.09;;;3.77;100.00
57232;BME280;43488;46.934;8.276;2023-04-21T00:19:42;96018.34;;;3.82;100.00
57232;BME280;43488;46.934;8.276;2023-04-21T00:22:10;96025.50;;;3.80;100.00
57232;BME280;43488;46.934;8.276;2023-04-21T00:24:42;96017.72;;;3.80;100.00
57232;BME280;43488;46.934;8.276;2023-04-21T00:27:09;96022.16;;;3.71;100.00
57232;BME280;43488;46.934;8.276;2023-04-21T00:29:39;96025.47;;;3.65;100.00
57232;BME280;43488;46.934;8.276;2023-04-21T00:32:07;96037.84;;;3.63;100.00
57232;BME280;43488;46.934;8.276;2023-04-21T00:34:36;96034.97;;;3.58;100.00
57232;BME280;43488;46.934;8.276;2023-04-21T00:37:19;96034.69;;;3.53;100.00
57232;BME280;43488;46.934;8.276;2023-04-21T00:39:46;96027.50;;;3.55;100.00
57232;BME280;43488;46.934;8.276;2023-04-21T00:42:27;96035.25;;;3.63;100.00
57232;BME280;43488;46.934;8.276;2023-04-21T00:44:55;96043.88;;;3.63;100.00
57232;BME280;43488;46.934;8.276;2023-04-21T00:47:22;96042.19;;;3.70;100.00
57232;BME280;43488;46.934;8.276;2023-04-21T00:49:50;96041.09;;;3.65;100.00
57232;BME280;43488;46.934;8.276;2023-04-21T00:52:26;96038.59;;;3.71;100.00
57232;BME280;43488;46.934;8.276;2023-04-21T00:55:03;96038.53;;;3.80;100.00
57232;BME280;43488;46.934;8.276;2023-04-21T00:57:31;96033.44;;;3.86;100.00
57232;BME280;43488;46.934;8.276;2023-04-21T00:59:59;96034.88;;;3.89;100.00
57232;BME280;43488;46.934;8.276;2023-04-21T01:02:26;96037.03;;;3.85;100.00
57232;BME280;43488;46.934;8.276;2023-04-21T01:04:57;96030.34;;;3.83;100.00
57232;BME280;43488;46.934;8.276;2023-04-21T01:07:34;96027.41;;;3.86;100.00
57232;BME280;43488;46.934;8.276;2023-04-21T01:10:03;96033.69;;;3.91;100.00
57232;BME280;43488;46.934;8.276;2023-04-21T01:12:32;96017.75;;;3.94;100.00
57232;BME280;43488;46.934;8.276;2023-04-21T01:15:01;96012.94;;;3.83;100.00
57232;BME280;43488;46.934;8.276;2023-04-21T01:17:28;96012.13;;;3.83;100.00
57232;BME280;43488;46.934;8.276;2023-04-21T01:20:01;95997.31;;;3.83;100.00
57232;BME280;43488;46.934;8.276;2023-04-21T01:22:31;95989.25;;;3.78;100.00
57232;BME280;43488;46.934;8.276;2023-04-21T01:24:58;95987.25;;;3.80;100.00
57232;BME280;43488;46.934;8.276;2023-04-21T01:27:25;95987.88;;;3.82;100.00
57232;BME280;43488;46.934;8.276;2023-04-21T01:29:53;95996.00;;;3.87;100.00
57232;BME280;43488;46.934;8.276;2023-04-21T01:32:26;96004.34;;;3.97;100.00
57232;BME280;43488;46.934;8.276;2023-04-21T01:34:56;96022.31;;;4.07;100.00
57232;BME280;43488;46.934;8.276;2023-04-21T01:37:29;96022.94;;;4.09;100.00
57232;BME280;43488;46.934;8.276;2023-04-21T01:40:00;96025.00;;;3.99;100.00
57232;BME280;43488;46.934;8.276;2023-04-21T01:42:29;96029.41;;;3.98;100.00
57232;BME280;43488;46.934;8.276;2023-04-21T01:44:58;96039.47;;;4.02;100.00
57232;BME280;43488;46.934;8.276;2023-04-21T01:47:26;96030.22;;;3.99;100.00
57232;BME280;43488;46.934;8.276;2023-04-21T01:49:53;96041.56;;;4.06;100.00
57232;BME280;43488;46.934;8.276;2023-04-21T01:52:26;96038.88;;;4.14;100.00
57232;BME280;43488;46.934;8.276;2023-04-21T01:54:54;96027.34;;;4.09;100.00
57232;BME280;43488;46.934;8.276;2023-04-21T01:57:22;96025.38;;;4.11;100.00
57232;BME280;43488;46.934;8.276;2023-04-21T01:59:49;96020.00;;;4.12;100.00
57232;BME280;43488;46.934;8.276;2023-04-21T02:02:17;96016.75;;;3.95;100.00
57232;BME280;43488;46.934;8.276;2023-04-21T02:04:45;96004.72;;;3.94;100.00
57232;BME280;43488;46.934;8.276;2023-04-21T02:07:12;96012.09;;;4.06;100.00
57232;BME280;43488;46.934;8.276;2023-04-21T02:09:39;96004.16;;;3.99;100.00
57232;BME280;43488;46.934;8.276;2023-04-21T02:12:08;95988.34;;;4.00;100.00
57232;BME280;43488;46.934;8.276;2023-04-21T02:14:36;95973.47;;;3.94;100.00
57232;BME280;43488;46.934;8.276;2023-04-21T02:17:04;95990.63;;;4.04;100.00
57232;BME280;43488;46.934;8.276;2023-04-21T02:19:33;95992.06;;;4.06;100.00
57232;BME280;43488;46.934;8.276;2023-04-21T02:22:00;95982.34;;;4.15;100.00
57232;BME280;43488;46.934;8.276;2023-04-21T02:24:28;95976.44;;;4.21;100.00
57232;BME280;43488;46.934;8.276;2023-04-21T02:26:56;95991.97;;;4.14;100.00
57232;BME280;43488;46.934;8.276;2023-04-21T02:29:27;95992.97;;;4.13;100.00
57232;BME280;43488;46.934;8.276;2023-04-21T02:31:54;95986.75;;;4.14;100.00
57232;BME280;43488;46.934;8.276;2023-04-21T02:34:22;95989.00;;;4.17;100.00
57232;BME280;43488;46.934;8.276;2023-04-21T02:36:50;95999.41;;;4.17;100.00
57232;BME280;43488;46.934;8.276;2023-04-21T02:39:17;95999.59;;;4.01;100.00
57232;BME280;43488;46.934;8.276;2023-04-21T02:41:45;96004.47;;;4.04;100.00
57232;BME280;43488;46.934;8.276;2023-04-21T02:44:13;95997.34;;;3.98;100.00
57232;BME280;43488;46.934;8.276;2023-04-21T02:46:53;95996.09;;;3.94;100.00
57232;BME280;43488;46.934;8.276;2023-04-21T02:49:21;95996.00;;;3.87;100.00
57232;BME280;43488;46.934;8.276;2023-04-21T02:51:49;95984.59;;;3.88;100.00
57232;BME280;43488;46.934;8.276;2023-04-21T02:54:16;95980.25;;;3.81;100.00
57232;BME280;43488;46.934;8.276;2023-04-21T02:56:49;95979.19;;;3.75;100.00
57232;BME280;43488;46.934;8.276;2023-04-21T02:59:21;95971.66;;;3.80;100.00
57232;BME280;43488;46.934;8.276;2023-04-21T03:01:49;95974.94;;;3.74;100.00
57232;BME280;43488;46.934;8.276;2023-04-21T03:04:17;95967.69;;;3.69;100.00
57232;BME280;43488;46.934;8.276;2023-04-21T03:06:46;95970.81;;;3.65;100.00
57232;BME280;43488;46.934;8.276;2023-04-21T03:09:23;95961.19;;;3.65;100.00
57232;BME280;43488;46.934;8.276;2023-04-21T03:11:51;95968.06;;;3.66;100.00
57232;BME280;43488;46.934;8.276;2023-04-21T03:14:22;95974.50;;;3.70;100.00
57232;BME280;43488;46.934;8.276;2023-04-21T03:16:54;95979.91;;;3.69;100.00
57232;BME280;43488;46.934;8.276;2023-04-21T03:19:21;95981.69;;;3.68;100.00
57232;BME280;43488;46.934;8.276;2023-04-21T03:21:49;95994.88;;;3.67;100.00
57232;BME280;43488;46.934;8.276;2023-04-21T03:24:16;95990.88;;;3.56;100.00
57232;BME280;43488;46.934;8.276;2023-04-21T03:26:44;95990.75;;;3.58;100.00
57232;BME280;43488;46.934;8.276;2023-04-21T03:29:11;95992.34;;;3.59;100.00
57232;BME280;43488;46.934;8.276;2023-04-21T03:31:38;95988.59;;;3.61;100.00
57232;BME280;43488;46.934;8.276;2023-04-21T03:34:10;95987.97;;;3.59;100.00
57232;BME280;43488;46.934;8.276;2023-04-21T03:36:38;95989.22;;;3.63;100.00
57232;BME280;43488;46.934;8.276;2023-04-21T03:39:06;95992.91;;;3.69;100.00
57232;BME280;43488;46.934;8.276;2023-04-21T03:41:33;95993.41;;;3.64;100.00
57232;BME280;43488;46.934;8.276;2023-04-21T03:44:01;95991.28;;;3.68;100.00
57232;BME280;43488;46.934;8.276;2023-04-21T03:46:28;95985.28;;;3.67;100.00
57232;BME280;43488;46.934;8.276;2023-04-21T03:48:56;95987.59;;;3.62;100.00
57232;BME280;43488;46.934;8.276;2023-04-21T03:51:33;95988.88;;;3.66;100.00
57232;BME280;43488;46.934;8.276;2023-04-21T03:54:03;95984.75;;;3.72;100.00
57232;BME280;43488;46.934;8.276;2023-04-21T03:56:31;95979.81;;;3.77;100.00
57232;BME280;43488;46.934;8.276;2023-04-21T03:58:58;95982.44;;;3.77;100.00
57232;BME280;43488;46.934;8.276;2023-04-21T04:01:25;95980.63;;;3.78;100.00
57232;BME280;43488;46.934;8.276;2023-04-21T04:03:56;95989.34;;;3.85;100.00
57232;BME280;43488;46.934;8.276;2023-04-21T04:06:23;95986.91;;;3.83;100.00
57232;BME280;43488;46.934;8.276;2023-04-21T04:08:51;95985.94;;;3.84;100.00
57232;BME280;43488;46.934;8.276;2023-04-21T04:11:24;95987.72;;;3.84;100.00
57232;BME280;43488;46.934;8.276;2023-04-21T04:13:52;95998.41;;;3.89;100.00
57232;BME280;43488;46.934;8.276;2023-04-21T04:16:19;95988.44;;;3.92;100.00
57232;BME280;43488;46.934;8.276;2023-04-21T04:18:47;96000.13;;;3.96;100.00
57232;BME280;43488;46.934;8.276;2023-04-21T04:21:18;95993.13;;;3.97;100.00
57232;BME280;43488;46.934;8.276;2023-04-21T04:23:45;95994.38;;;4.01;100.00
57232;BME280;43488;46.934;8.276;2023-04-21T04:26:13;95998.16;;;3.98;100.00
57232;BME280;43488;46.934;8.276;2023-04-21T04:28:40;95990.41;;;3.90;100.00
57232;BME280;43488;46.934;8.276;2023-04-21T04:31:08;95990.41;;;3.90;100.00
57232;BME280;43488;46.934;8.276;2023-04-21T04:33:35;95989.97;;;3.87;100.00
57232;BME280;43488;46.934;8.276;2023-04-21T04:36:03;95985.84;;;3.92;100.00
57232;BME280;43488;46.934;8.276;2023-04-21T04:38:30;95994.56;;;3.99;100.00
57232;BME280;43488;46.934;8.276;2023-04-21T04:41:00;96002.75;;;3.96;100.00
57232;BME280;43488;46.934;8.276;2023-04-21T04:43:28;96003.34;;;3.98;100.00
57232;BME280;43488;46.934;8.276;2023-04-21T04:45:56;96010.38;;;3.98;100.00
57232;BME280;43488;46.934;8.276;2023-04-21T04:48:25;96015.56;;;3.98;100.00
57232;BME280;43488;46.934;8.276;2023-04-21T04:50:53;96018.38;;;3.96;100.00
57232;BME280;43488;46.934;8.276;2023-04-21T04:53:29;96017.00;;;4.00;100.00
57232;BME280;43488;46.934;8.276;2023-04-21T04:55:58;96030.22;;;3.99;100.00
57232;BME280;43488;46.934;8.276;2023-04-21T04:58:25;96026.63;;;4.00;100.00
57232;BME280;43488;46.934;8.276;2023-04-21T05:00:52;96028.34;;;4.08;100.00
57232;BME280;43488;46.934;8.276;2023-04-21T05:03:35;96030.56;;;4.11;100.00
57232;BME280;43488;46.934;8.276;2023-04-21T05:06:15;96034.97;;;4.10;100.00
57232;BME280;43488;46.934;8.276;2023-04-21T05:08:43;96028.06;;;4.17;100.00
57232;BME280;43488;46.934;8.276;2023-04-21T05:11:11;96028.19;;;4.24;100.00
57232;BME280;43488;46.934;8.276;2023-04-21T05:13:38;96025.38;;;4.25;100.00
57232;BME280;43488;46.934;8.276;2023-04-21T05:16:06;96027.72;;;4.20;100.00
57232;BME280;43488;46.934;8.276;2023-04-21T05:18:33;96032.47;;;4.17;100.00
57232;BME280;43488;46.934;8.276;2023-04-21T05:21:01;96036.50;;;4.19;100.00
57232;BME280;43488;46.934;8.276;2023-04-21T05:23:29;96036.69;;;4.18;100.00
57232;BME280;43488;46.934;8.276;2023-04-21T05:25:57;96035.38;;;4.22;100.00
57232;BME280;43488;46.934;8.276;2023-04-21T05:28:25;96038.16;;;4.35;100.00
57232;BME280;43488;46.934;8.276;2023-04-21T05:30:56;96041.28;;;4.45;100.00
57232;BME280;43488;46.934;8.276;2023-04-21T05:33:23;96047.41;;;4.52;100.00
57232;BME280;43488;46.934;8.276;2023-04-21T05:35:52;96051.25;;;4.56;100.00
57232;BME280;43488;46.934;8.276;2023-04-21T05:38:19;96050.28;;;4.57;100.00
57232;BME280;43488;46.934;8.276;2023-04-21T05:40:54;96048.66;;;4.56;100.00
57232;BME280;43488;46.934;8.276;2023-04-21T05:43:34;96034.91;;;4.63;100.00
57232;BME280;43488;46.934;8.276;2023-04-21T05:46:06;96036.97;;;4.67;100.00
57232;BME280;43488;46.934;8.276;2023-04-21T05:48:34;96024.00;;;4.74;100.00
57232;BME280;43488;46.934;8.276;2023-04-21T05:51:13;96028.50;;;4.80;100.00
57232;BME280;43488;46.934;8.276;2023-04-21T05:53:45;96028.59;;;4.87;100.00
57232;BME280;43488;46.934;8.276;2023-04-21T05:56:13;96032.91;;;4.94;100.00
57232;BME280;43488;46.934;8.276;2023-04-21T05:58:40;96034.22;;;4.90;100.00
57232;BME280;43488;46.934;8.276;2023-04-21T06:01:08;96029.28;;;4.95;100.00
57232;BME280;43488;46.934;8.276;2023-04-21T06:03:36;96016.47;;;5.00;100.00
57232;BME280;43488;46.934;8.276;2023-04-21T06:06:05;96025.31;;;4.99;100.00
57232;BME280;43488;46.934;8.276;2023-04-21T06:08:33;96022.50;;;5.01;100.00
57232;BME280;43488;46.934;8.276;2023-04-21T06:11:00;96022.50;;;5.01;100.00
57232;BME280;43488;46.934;8.276;2023-04-21T06:13:28;96024.00;;;5.10;100.00
57232;BME280;43488;46.934;8.276;2023-04-21T06:15:55;96021.28;;;5.18;100.00
57232;BME280;43488;46.934;8.276;2023-04-21T06:18:23;96025.84;;;5.31;100.00
57232;BME280;43488;46.934;8.276;2023-04-21T06:20:59;96016.91;;;5.40;100.00
57232;BME280;43488;46.934;8.276;2023-04-21T06:23:29;96020.31;;;5.40;100.00
57232;BME280;43488;46.934;8.276;2023-04-21T06:26:05;96014.53;;;5.45;100.00
57232;BME280;43488;46.934;8.276;2023-04-21T06:28:34;96016.13;;;5.46;100.00
57232;BME280;43488;46.934;8.276;2023-04-21T06:31:03;96018.56;;;5.48;100.00
57232;BME280;43488;46.934;8.276;2023-04-21T06:33:30;96022.44;;;5.52;100.00
57232;BME280;43488;46.934;8.276;2023-04-21T06:35:57;96015.63;;;5.57;100.00
57232;BME280;43488;46.934;8.276;2023-04-21T06:38:25;96028.56;;;5.65;100.00
57232;BME280;43488;46.934;8.276;2023-04-21T06:40:52;96024.59;;;5.69;100.00
57232;BME280;43488;46.934;8.276;2023-04-21T06:43:28;96021.78;;;5.71;100.00
57232;BME280;43488;46.934;8.276;2023-04-21T06:45:55;96020.06;;;5.85;100.00
57232;BME280;43488;46.934;8.276;2023-04-21T06:48:22;96009.53;;;5.93;100.00
57232;BME280;43488;46.934;8.276;2023-04-21T06:50:51;96002.75;;;5.98;100.00
57232;BME280;43488;46.934;8.276;2023-04-21T06:53:18;96010.84;;;6.10;100.00
57232;BME280;43488;46.934;8.276;2023-04-21T06:55:47;96012.84;;;6.08;100.00
57232;BME280;43488;46.934;8.276;2023-04-21T06:58:14;96009.47;;;6.14;100.00
57232;BME280;43488;46.934;8.276;2023-04-21T07:00:42;96009.28;;;6.16;100.00
57232;BME280;43488;46.934;8.276;2023-04-21T07:03:16;95996.47;;;6.27;100.00
57232;BME280;43488;46.934;8.276;2023-04-21T07:05:43;96004.13;;;6.29;100.00
57232;BME280;43488;46.934;8.276;2023-04-21T07:08:12;96012.63;;;6.38;100.00
57232;BME280;43488;46.934;8.276;2023-04-21T07:10:39;96004.44;;;6.47;100.00
57232;BME280;43488;46.934;8.276;2023-04-21T07:13:08;96012.50;;;6.52;100.00
57232;BME280;43488;46.934;8.276;2023-04-21T07:15:35;96009.47;;;6.49;100.00
57232;BME280;43488;46.934;8.276;2023-04-21T07:18:03;96004.88;;;6.51;100.00
57232;BME280;43488;46.934;8.276;2023-04-21T07:23:59;95998.50;;;6.73;100.00
57232;BME280;43488;46.934;8.276;2023-04-21T07:26:26;95998.16;;;6.83;100.00
57232;BME280;43488;46.934;8.276;2023-04-21T07:28:56;95996.38;;;6.90;100.00
57232;BME280;43488;46.934;8.276;2023-04-21T07:31:24;96004.69;;;7.07;100.00
57232;BME280;43488;46.934;8.276;2023-04-21T07:33:54;95992.41;;;7.14;98.96
57232;BME280;43488;46.934;8.276;2023-04-21T07:36:29;95982.34;;;7.18;100.00
57232;BME280;43488;46.934;8.276;2023-04-21T07:38:57;95977.72;;;7.26;98.86
57232;BME280;43488;46.934;8.276;2023-04-21T07:41:34;95973.91;;;7.16;99.98
57232;BME280;43488;46.934;8.276;2023-04-21T07:44:05;95984.97;;;7.18;100.00
57232;BME280;43488;46.934;8.276;2023-04-21T07:46:33;95978.13;;;7.30;100.00
57232;BME280;43488;46.934;8.276;2023-04-21T07:49:00;95974.50;;;7.24;100.00
57232;BME280;43488;46.934;8.276;2023-04-21T07:51:36;95979.13;;;7.16;100.00
57232;BME280;43488;46.934;8.276;2023-04-21T07:54:04;95976.75;;;7.34;100.00
57232;BME280;43488;46.934;8.276;2023-04-21T07:56:37;95973.91;;;7.35;100.00
57232;BME280;43488;46.934;8.276;2023-04-21T07:59:06;95977.72;;;7.39;100.00
57232;BME280;43488;46.934;8.276;2023-04-21T08:01:33;95990.84;;;7.39;100.00
57232;BME280;43488;46.934;8.276;2023-04-21T08:04:01;96000.31;;;7.34;100.00
57232;BME280;43488;46.934;8.276;2023-04-21T08:06:29;95986.41;;;7.40;100.00
57232;BME280;43488;46.934;8.276;2023-04-21T08:09:00;95987.41;;;7.46;98.37
57232;BME280;43488;46.934;8.276;2023-04-21T08:11:27;95996.06;;;7.33;99.40
57232;BME280;43488;46.934;8.276;2023-04-21T08:13:55;95987.63;;;7.51;96.72
57232;BME280;43488;46.934;8.276;2023-04-21T08:16:24;95983.41;;;7.56;96.08
57232;BME280;43488;46.934;8.276;2023-04-21T08:18:58;95983.63;;;7.61;97.08
57232;BME280;43488;46.934;8.276;2023-04-21T08:21:26;95986.44;;;7.73;94.03
57232;BME280;43488;46.934;8.276;2023-04-21T08:23:56;95979.19;;;7.68;94.32
57232;BME280;43488;46.934;8.276;2023-04-21T08:27:00;95970.31;;;7.89;96.10
57232;BME280;43488;46.934;8.276;2023-04-21T08:30:22;95978.56;;;7.99;94.24
57232;BME280;43488;46.934;8.276;2023-04-21T08:32:55;95978.56;;;8.06;97.89
57232;BME280;43488;46.934;8.276;2023-04-21T08:35:23;95981.19;;;8.06;93.68
57232;BME280;43488;46.934;8.276;2023-04-21T08:41:13;95980.53;;;8.17;94.76
57232;BME280;43488;46.934;8.276;2023-04-21T08:43:42;95975.88;;;8.33;97.88
57232;BME280;43488;46.934;8.276;2023-04-21T08:46:11;95976.88;;;8.38;96.31
57232;BME280;43488;46.934;8.276;2023-04-21T08:48:38;95973.88;;;8.41;96.29
57232;BME280;43488;46.934;8.276;2023-04-21T08:51:08;95977.47;;;8.47;94.23
57232;BME280;43488;46.934;8.276;2023-04-21T08:53:36;95973.03;;;8.47;94.38
57232;BME280;43488;46.934;8.276;2023-04-21T08:56:04;95970.75;;;8.64;92.77
57232;BME280;43488;46.934;8.276;2023-04-21T08:58:31;95964.63;;;8.77;90.39
57232;BME280;43488;46.934;8.276;2023-04-21T09:00:59;95969.50;;;8.80;93.09
57232;BME280;43488;46.934;8.276;2023-04-21T09:03:28;95976.16;;;8.76;93.82
57232;BME280;43488;46.934;8.276;2023-04-21T09:06:00;95967.31;;;8.70;95.37
57232;BME280;43488;46.934;8.276;2023-04-21T09:08:28;95966.06;;;8.73;92.55
57232;BME280;43488;46.934;8.276;2023-04-21T09:10:58;95964.25;;;8.80;91.42
57232;BME280;43488;46.934;8.276;2023-04-21T09:13:35;95959.66;;;8.69;93.00
57232;BME280;43488;46.934;8.276;2023-04-21T09:16:20;95959.00;;;8.80;94.40
57232;BME280;43488;46.934;8.276;2023-04-21T09:19:17;95956.38;;;8.80;93.81
57232;BME280;43488;46.934;8.276;2023-04-21T09:21:44;95962.91;;;9.02;92.43
57232;BME280;43488;46.934;8.276;2023-04-21T09:24:12;95963.31;;;9.06;91.35
57232;BME280;43488;46.934;8.276;2023-04-21T09:26:41;95956.03;;;9.01;90.40
57232;BME280;43488;46.934;8.276;2023-04-21T09:29:08;95958.53;;;9.21;91.51
57232;BME280;43488;46.934;8.276;2023-04-21T09:31:36;95960.31;;;9.34;91.18
57232;BME280;43488;46.934;8.276;2023-04-21T09:34:25;95961.03;;;9.41;89.11
57232;BME280;43488;46.934;8.276;2023-04-21T09:37:02;95966.31;;;9.66;87.30
57232;BME280;43488;46.934;8.276;2023-04-21T09:39:31;95957.94;;;10.01;86.00
57232;BME280;43488;46.934;8.276;2023-04-21T09:41:59;95955.13;;;10.20;86.06
57232;BME280;43488;46.934;8.276;2023-04-21T09:44:27;95957.78;;;10.39;88.20
57232;BME280;43488;46.934;8.276;2023-04-21T09:47:00;95963.56;;;10.47;87.21
57232;BME280;43488;46.934;8.276;2023-04-21T09:49:34;95955.97;;;10.39;86.26
57232;BME280;43488;46.934;8.276;2023-04-21T09:52:12;95950.41;;;10.29;86.33
57232;BME280;43488;46.934;8.276;2023-04-21T09:54:49;95964.66;;;10.40;86.79
57232;BME280;43488;46.934;8.276;2023-04-21T09:57:26;95968.59;;;10.31;89.69
57232;BME280;43488;46.934;8.276;2023-04-21T10:00:07;95969.84;;;10.28;86.61
57232;BME280;43488;46.934;8.276;2023-04-21T10:03:03;95964.28;;;10.36;86.89
57232;BME280;43488;46.934;8.276;2023-04-21T10:05:31;95958.75;;;10.26;84.58
57232;BME280;43488;46.934;8.276;2023-04-21T10:07:58;95961.38;;;10.26;83.73
57232;BME280;43488;46.934;8.276;2023-04-21T10:10:28;95963.00;;;10.20;86.40
57232;BME280;43488;46.934;8.276;2023-04-21T10:13:00;95968.50;;;10.19;84.92
57232;BME280;43488;46.934;8.276;2023-04-21T10:15:38;95974.44;;;10.51;84.29
57232;BME280;43488;46.934;8.276;2023-04-21T10:20:56;95965.84;;;10.44;85.70
57232;BME280;43488;46.934;8.276;2023-04-21T10:23:46;95965.47;;;10.59;85.42
57232;BME280;43488;46.934;8.276;2023-04-21T10:26:33;95956.47;;;10.66;84.87
57232;BME280;43488;46.934;8.276;2023-04-21T10:29:03;95955.06;;;10.82;82.90
57232;BME280;43488;46.934;8.276;2023-04-21T10:31:35;95946.34;;;10.81;81.49
57232;BME280;43488;46.934;8.276;2023-04-21T10:37:13;95937.47;;;10.46;84.78
57232;BME280;43488;46.934;8.276;2023-04-21T10:39:52;95938.78;;;10.37;86.45
57232;BME280;43488;46.934;8.276;2023-04-21T10:42:26;95940.94;;;10.76;85.42
57232;BME280;43488;46.934;8.276;2023-04-21T10:45:06;95936.44;;;10.95;82.87
57232;BME280;43488;46.934;8.276;2023-04-21T10:47:46;95938.31;;;11.36;81.74
57232;BME280;43488;46.934;8.276;2023-04-21T10:50:22;95938.22;;;11.43;81.97
57232;BME280;43488;46.934;8.276;2023-04-21T10:52:58;95942.84;;;11.71;81.08
57232;BME280;43488;46.934;8.276;2023-04-21T10:55:30;95944.00;;;11.75;80.81
57232;BME280;43488;46.934;8.276;2023-04-21T10:58:02;95945.13;;;11.67;79.64
57232;BME280;43488;46.934;8.276;2023-04-21T11:00:30;95937.44;;;11.66;79.06
57232;BME280;43488;46.934;8.276;2023-04-21T11:03:05;95930.47;;;11.72;79.99
57232;BME280;43488;46.934;8.276;2023-04-21T11:05:42;95940.63;;;11.56;81.49
57232;BME280;43488;46.934;8.276;2023-04-21T11:08:15;95944.09;;;11.68;79.12
57232;BME280;43488;46.934;8.276;2023-04-21T11:10:54;95947.19;;;11.77;79.21
57232;BME280;43488;46.934;8.276;2023-04-21T11:13:25;95941.84;;;11.95;79.05
57232;BME280;43488;46.934;8.276;2023-04-21T11:16:05;95942.88;;;11.94;77.34
57232;BME280;43488;46.934;8.276;2023-04-21T11:18:44;95947.69;;;11.98;76.47
57232;BME280;43488;46.934;8.276;2023-04-21T11:21:16;95954.34;;;12.12;74.90
57232;BME280;43488;46.934;8.276;2023-04-21T11:23:54;95953.22;;;12.19;74.57
57232;BME280;43488;46.934;8.276;2023-04-21T11:26:34;95957.91;;;12.17;76.71
57232;BME280;43488;46.934;8.276;2023-04-21T11:29:11;95957.34;;;12.04;81.77
57232;BME280;43488;46.934;8.276;2023-04-21T11:31:41;95965.53;;;11.72;81.66
57232;BME280;43488;46.934;8.276;2023-04-21T11:34:10;95966.94;;;11.86;79.98
57232;BME280;43488;46.934;8.276;2023-04-21T11:36:43;95961.88;;;11.73;81.81
57232;BME280;43488;46.934;8.276;2023-04-21T11:39:13;95966.69;;;11.76;82.19
57232;BME280;43488;46.934;8.276;2023-04-21T11:41:53;95967.81;;;11.57;80.73
57232;BME280;43488;46.934;8.276;2023-04-21T11:44:40;95976.50;;;11.46;80.85
57232;BME280;43488;46.934;8.276;2023-04-21T11:47:16;95976.50;;;11.46;82.29
57232;BME280;43488;46.934;8.276;2023-04-21T11:49:46;95981.75;;;11.46;81.71
57232;BME280;43488;46.934;8.276;2023-04-21T11:52:31;95979.28;;;11.21;83.22
57232;BME280;43488;46.934;8.276;2023-04-21T11:55:02;95976.84;;;11.19;82.46
57232;BME280;43488;46.934;8.276;2023-04-21T11:57:31;95972.19;;;11.33;81.81
57232;BME280;43488;46.934;8.276;2023-04-21T12:00:01;95966.28;;;11.49;81.54
57232;BME280;43488;46.934;8.276;2023-04-21T12:02:37;95959.66;;;11.47;81.74
57232;BME280;43488;46.934;8.276;2023-04-21T12:05:11;95948.63;;;11.50;81.76
57232;BME280;43488;46.934;8.276;2023-04-21T12:07:46;95955.09;;;11.54;82.52
57232;BME280;43488;46.934;8.276;2023-04-21T12:10:20;95965.06;;;11.63;83.10
57232;BME280;43488;46.934;8.276;2023-04-21T12:12:48;95963.13;;;11.71;81.96
57232;BME280;43488;46.934;8.276;2023-04-21T12:15:19;95965.25;;;11.92;79.89
57232;BME280;43488;46.934;8.276;2023-04-21T12:17:50;95964.22;;;12.16;79.64
57232;BME280;43488;46.934;8.276;2023-04-21T12:20:21;95954.56;;;12.22;79.22
57232;BME280;43488;46.934;8.276;2023-04-21T12:22:49;95956.88;;;12.30;78.38
57232;BME280;43488;46.934;8.276;2023-04-21T12:25:17;95958.66;;;12.65;79.63
57232;BME280;43488;46.934;8.276;2023-04-21T12:27:53;95956.84;;;12.94;75.02
57232;BME280;43488;46.934;8.276;2023-04-21T12:30:21;95963.53;;;13.13;75.81
57232;BME280;43488;46.934;8.276;2023-04-21T12:32:51;95962.78;;;13.01;76.10
57232;BME280;43488;46.934;8.276;2023-04-21T12:35:29;95966.97;;;13.25;75.02
57232;BME280;43488;46.934;8.276;2023-04-21T12:37:59;95963.13;;;13.33;74.20
57232;BME280;43488;46.934;8.276;2023-04-21T12:40:28;95967.16;;;13.81;76.91
57232;BME280;43488;46.934;8.276;2023-04-21T12:42:56;95954.94;;;13.63;75.46
57232;BME280;43488;46.934;8.276;2023-04-21T12:45:24;95966.31;;;13.80;79.14
57232;BME280;43488;46.934;8.276;2023-04-21T12:47:52;95971.25;;;13.43;77.36
57232;BME280;43488;46.934;8.276;2023-04-21T12:50:26;95978.03;;;13.10;75.05
57232;BME280;43488;46.934;8.276;2023-04-21T12:52:54;95979.97;;;13.27;74.58
57232;BME280;43488;46.934;8.276;2023-04-21T12:55:22;95976.44;;;13.09;76.76
57232;BME280;43488;46.934;8.276;2023-04-21T12:57:52;95982.63;;;13.27;76.14
57232;BME280;43488;46.934;8.276;2023-04-21T13:00:22;95979.16;;;13.15;75.20
57232;BME280;43488;46.934;8.276;2023-04-21T13:02:51;95982.03;;;13.25;72.16
57232;BME280;43488;46.934;8.276;2023-04-21T13:05:19;95986.09;;;13.44;71.66
57232;BME280;43488;46.934;8.276;2023-04-21T13:07:48;95991.38;;;13.44;73.84
57232;BME280;43488;46.934;8.276;2023-04-21T13:10:16;95990.44;;;13.67;77.25
57232;BME280;43488;46.934;8.276;2023-04-21T13:12:43;95982.47;;;13.50;72.30
57232;BME280;43488;46.934;8.276;2023-04-21T13:15:11;95981.59;;;13.45;73.99
57232;BME280;43488;46.934;8.276;2023-04-21T13:17:39;95979.09;;;13.38;73.44
57232;BME280;43488;46.934;8.276;2023-04-21T13:20:11;95980.31;;;13.19;74.36
57232;BME280;43488;46.934;8.276;2023-04-21T13:22:38;95980.91;;;13.21;75.74
57232;BME280;43488;46.934;8.276;2023-04-21T13:25:08;95981.56;;;13.28;74.74
57232;BME280;43488;46.934;8.276;2023-04-21T13:27:36;95978.19;;;13.32;74.61
57232;BME280;43488;46.934;8.276;2023-04-21T13:30:09;95982.22;;;13.35;75.44
57232;BME280;43488;46.934;8.276;2023-04-21T13:32:38;95982.69;;;13.32;76.24
57232;BME280;43488;46.934;8.276;2023-04-21T13:35:08;95978.81;;;13.23;75.28